Time,TemperatureF,DewpointF,PressureIn,WindDirection,WindDirectionDegrees,WindSpeedMPH,WindSpeedGustMPH,Humidity,HourlyPrecipIn,Conditions,Clouds,dailyrainin,SoftwareType,DateUTC
2013-01-31 00:03:00,57.0,57.0,29.44,SSW,210,24.0,38.0,100,-99.99,,,-99.99,,2013-01-31 05:03:00,
2013-01-31 00:11:00,59.0,59.0,29.43,SW,220,20.0,43.0,100,-99.99,,,-99.99,,2013-01-31 05:11:00,
2013-01-31 00:22:00,59.0,59.0,29.42,SW,220,29.0,48.0,100,-99.99,,,-99.99,,2013-01-31 05:22:00,
2013-01-31 00:32:00,59.0,59.0,29.42,SW,220,29.0,48.0,100,-99.99,,,-99.99,,2013-01-31 05:32:00,
2013-01-31 00:42:00,59.0,59.0,29.42,SSW,210,32.0,43.0,100,-99.99,,,-99.99,,2013-01-31 05:42:00,
2013-01-31 00:52:00,59.0,59.0,29.42,SSW,210,32.0,43.0,100,-99.99,,,-99.99,,2013-01-31 05:52:00,
2013-01-31 01:01:00,59.0,59.0,29.42,SSW,210,32.0,43.0,100,-99.99,,,-99.99,,2013-01-31 06:01:00,
2013-01-31 01:10:00,59.0,59.0,29.42,SSW,210,32.0,43.0,100,-99.99,,,-99.99,,2013-01-31 06:10:00,
2013-01-31 09:03:00,46.0,32.0,29.45,NW,310,13.0,32.0,57,-99.99,,,-99.99,,2013-01-31 14:03:00,
2013-01-31 09:11:00,46.0,28.0,29.47,WNW,300,28.0,38.0,49,-99.99,,,-99.99,,2013-01-31 14:11:00,
2013-01-31 09:22:00,46.0,28.0,29.49,WNW,300,35.0,38.0,49,-99.99,,,-99.99,,2013-01-31 14:22:00,
2013-01-31 09:32:00,46.0,27.0,29.50,NW,310,27.0,35.0,45,-99.99,,,-99.99,,2013-01-31 14:32:00,
2013-01-31 09:42:00,46.0,27.0,29.50,NW,310,25.0,32.0,45,-99.99,,,-99.99,,2013-01-31 14:42:00,
2013-01-31 09:52:00,46.0,27.0,29.51,WNW,290,15.0,32.0,45,-99.99,,,-99.99,,2013-01-31 14:52:00,
2013-01-31 10:03:00,46.0,27.0,29.51,WNW,290,15.0,32.0,45,-99.99,,,-99.99,,2013-01-31 15:03:00,
2013-01-31 10:12:00,46.0,27.0,29.52,WNW,300,12.0,32.0,45,-99.99,,,-99.99,,2013-01-31 15:12:00,
2013-01-31 10:22:00,46.0,27.0,29.53,West,280,32.0,32.0,45,-99.99,,,-99.99,,2013-01-31 15:22:00,
2013-01-31 10:32:00,46.0,25.0,29.54,West,280,14.0,33.0,42,-99.99,,,-99.99,,2013-01-31 15:32:00,
2013-01-31 10:42:00,46.0,25.0,29.54,West,280,18.0,28.0,42,-99.99,,,-99.99,,2013-01-31 15:42:00,
2013-01-31 10:51:00,46.0,23.0,29.55,WNW,300,23.0,35.0,39,-99.99,,,-99.99,,2013-01-31 15:51:00,
2013-01-31 11:03:00,46.0,23.0,29.55,WNW,300,23.0,35.0,39,-99.99,,,-99.99,,2013-01-31 16:03:00,
2013-01-31 11:12:00,46.0,23.0,29.55,West,280,25.0,30.0,39,-99.99,,,-99.99,,2013-01-31 16:12:00,
2013-01-31 11:22:00,46.0,23.0,29.56,West,280,21.0,31.0,39,-99.99,,,-99.99,,2013-01-31 16:22:00,
2013-01-31 11:33:00,46.0,23.0,29.56,West,280,29.0,31.0,39,-99.99,,,-99.99,,2013-01-31 16:33:00,
2013-01-31 11:42:00,46.0,23.0,29.57,WNW,290,20.0,31.0,39,-99.99,,,-99.99,,2013-01-31 16:42:00,
2013-01-31 11:52:00,46.0,21.0,29.57,WNW,300,15.0,38.0,36,-99.99,,,-99.99,,2013-01-31 16:52:00,
2013-01-31 12:03:00,46.0,21.0,29.57,WNW,300,15.0,38.0,36,-99.99,,,-99.99,,2013-01-31 17:03:00,
2013-01-31 12:12:00,46.0,23.0,29.57,West,260,22.0,32.0,39,-99.99,,,-99.99,,2013-01-31 17:12:00,
2013-01-31 12:23:00,46.0,23.0,29.57,West,260,17.0,31.0,39,-99.99,,,-99.99,,2013-01-31 17:23:00,
2013-01-31 12:32:00,46.0,23.0,29.57,West,260,18.0,30.0,39,-99.99,,,-99.99,,2013-01-31 17:32:00,
2013-01-31 12:43:00,46.0,23.0,29.57,West,280,17.0,30.0,39,-99.99,,,-99.99,,2013-01-31 17:43:00,
2013-01-31 12:53:00,46.0,23.0,29.58,West,260,22.0,28.0,39,-99.99,,,-99.99,,2013-01-31 17:53:00,
2013-01-31 13:03:00,46.0,23.0,29.58,West,260,22.0,28.0,39,-99.99,,,-99.99,,2013-01-31 18:03:00,
2013-01-31 13:12:00,46.0,23.0,29.59,West,280,15.0,31.0,39,-99.99,,,-99.99,,2013-01-31 18:12:00,
2013-01-31 13:22:00,48.0,23.0,29.59,NW,310,17.0,31.0,36,-99.99,,,-99.99,,2013-01-31 18:22:00,
2013-01-31 13:32:00,46.0,23.0,29.59,WNW,290,23.0,35.0,39,-99.99,,,-99.99,,2013-01-31 18:32:00,
2013-01-31 13:43:00,46.0,21.0,29.59,WNW,290,14.0,32.0,36,-99.99,,,-99.99,,2013-01-31 18:43:00,
2013-01-31 13:52:00,46.0,23.0,29.60,West,270,16.0,30.0,39,-99.99,,,-99.99,,2013-01-31 18:52:00,
2013-01-31 14:03:00,46.0,23.0,29.60,West,270,16.0,30.0,39,-99.99,,,-99.99,,2013-01-31 19:03:00,
2013-01-31 14:12:00,46.0,19.0,29.60,WNW,300,16.0,37.0,33,-99.99,,,-99.99,,2013-01-31 19:12:00,
2013-01-31 14:22:00,46.0,19.0,29.61,WNW,290,24.0,29.0,33,-99.99,,,-99.99,,2013-01-31 19:22:00,
2013-01-31 14:33:00,46.0,18.0,29.61,West,270,24.0,35.0,31,-99.99,,,-99.99,,2013-01-31 19:33:00,
2013-01-31 14:42:00,46.0,18.0,29.61,WNW,300,15.0,35.0,31,-99.99,,,-99.99,,2013-01-31 19:42:00,
2013-01-31 14:52:00,46.0,18.0,29.62,WSW,250,22.0,33.0,31,-99.99,,,-99.99,,2013-01-31 19:52:00,
2013-01-31 15:02:00,46.0,18.0,29.62,WSW,250,22.0,33.0,31,-99.99,,,-99.99,,2013-01-31 20:02:00,
2013-01-31 15:11:00,46.0,18.0,29.63,West,280,13.0,28.0,31,-99.99,,,-99.99,,2013-01-31 20:11:00,
2013-01-31 15:22:00,46.0,18.0,29.63,West,260,18.0,31.0,31,-99.99,,,-99.99,,2013-01-31 20:22:00,
2013-01-31 15:32:00,46.0,18.0,29.64,WNW,300,20.0,30.0,31,-99.99,,,-99.99,,2013-01-31 20:32:00,
2013-01-31 15:42:00,46.0,19.0,29.64,WNW,300,21.0,30.0,33,-99.99,,,-99.99,,2013-01-31 20:42:00,
2013-01-31 15:52:00,45.0,18.0,29.66,WNW,300,9.0,32.0,33,-99.99,,,-99.99,,2013-01-31 20:52:00,
2013-01-31 16:02:00,45.0,18.0,29.66,WNW,300,9.0,32.0,33,-99.99,,,-99.99,,2013-01-31 21:02:00,
2013-01-31 16:12:00,45.0,18.0,29.67,West,280,18.0,29.0,33,-99.99,,,-99.99,,2013-01-31 21:12:00,
2013-01-31 16:22:00,45.0,18.0,29.68,West,280,21.0,30.0,33,-99.99,,,-99.99,,2013-01-31 21:22:00,
2013-01-31 16:32:00,45.0,18.0,29.69,WNW,300,17.0,29.0,33,-99.99,,,-99.99,,2013-01-31 21:32:00,
2013-01-31 16:42:00,43.0,18.0,29.69,WNW,300,9.0,29.0,35,-99.99,,,-99.99,,2013-01-31 21:42:00,
2013-01-31 16:52:00,41.0,18.0,29.70,WNW,300,24.0,28.0,38,-99.99,,,-99.99,,2013-01-31 21:52:00,
2013-01-31 17:03:00,41.0,18.0,29.70,WNW,300,24.0,28.0,38,-99.99,,,-99.99,,2013-01-31 22:03:00,
2013-01-31 17:11:00,41.0,18.0,29.71,West,280,18.0,25.0,38,-99.99,,,-99.99,,2013-01-31 22:11:00,
2013-01-31 17:22:00,39.0,19.0,29.73,WNW,300,16.0,24.0,44,-99.99,,,-99.99,,2013-01-31 22:22:00,
2013-01-31 17:33:00,39.0,19.0,29.74,West,280,9.0,24.0,44,-99.99,,,-99.99,,2013-01-31 22:33:00,
2013-01-31 17:42:00,39.0,19.0,29.74,West,280,13.0,25.0,44,-99.99,,,-99.99,,2013-01-31 22:42:00,
2013-01-31 17:51:00,37.0,16.0,29.75,West,270,16.0,27.0,40,-99.99,,,-99.99,,2013-01-31 22:51:00,
2013-01-31 18:03:00,37.0,16.0,29.75,West,270,16.0,27.0,40,-99.99,,,-99.99,,2013-01-31 23:03:00,
2013-01-31 18:12:00,37.0,14.0,29.76,WNW,300,10.0,25.0,37,-99.99,,,-99.99,,2013-01-31 23:12:00,
2013-01-31 18:22:00,37.0,14.0,29.78,West,280,9.0,25.0,37,-99.99,,,-99.99,,2013-01-31 23:22:00,
2013-01-31 18:32:00,37.0,14.0,29.78,West,280,18.0,24.0,37,-99.99,,,-99.99,,2013-01-31 23:32:00,
2013-01-31 18:42:00,37.0,14.0,29.79,WNW,290,14.0,27.0,37,-99.99,,,-99.99,,2013-01-31 23:42:00,
2013-01-31 18:52:00,37.0,16.0,29.80,NW,310,15.0,27.0,40,-99.99,,,-99.99,,2013-01-31 23:52:00,
2013-01-31 19:02:00,37.0,16.0,29.80,NW,310,15.0,27.0,40,-99.99,,,-99.99,,2013-02-01 00:02:00,
2013-01-31 19:11:00,37.0,16.0,29.80,WNW,290,13.0,28.0,40,-99.99,,,-99.99,,2013-02-01 00:11:00,
2013-01-31 19:22:00,36.0,16.0,29.81,West,280,13.0,23.0,43,-99.99,,,-99.99,,2013-02-01 00:22:00,
2013-01-31 19:32:00,36.0,14.0,29.82,WNW,300,21.0,28.0,40,-99.99,,,-99.99,,2013-02-01 00:32:00,
2013-01-31 19:42:00,36.0,14.0,29.81,WNW,290,16.0,28.0,40,-99.99,,,-99.99,,2013-02-01 00:42:00,
2013-01-31 19:51:00,36.0,14.0,29.82,WNW,300,13.0,22.0,40,-99.99,,,-99.99,,2013-02-01 00:51:00,
2013-01-31 20:01:00,36.0,14.0,29.82,WNW,300,13.0,22.0,40,-99.99,,,-99.99,,2013-02-01 01:01:00,
2013-01-31 20:11:00,36.0,14.0,29.83,WNW,290,17.0,21.0,40,-99.99,,,-99.99,,2013-02-01 01:11:00,
2013-01-31 20:21:00,36.0,14.0,29.83,WNW,290,15.0,21.0,40,-99.99,,,-99.99,,2013-02-01 01:21:00,
2013-01-31 20:32:00,36.0,14.0,29.83,WNW,300,18.0,27.0,40,-99.99,,,-99.99,,2013-02-01 01:32:00,
2013-01-31 20:42:00,36.0,14.0,29.83,WNW,290,16.0,29.0,40,-99.99,,,-99.99,,2013-02-01 01:42:00,
2013-01-31 20:52:00,36.0,14.0,29.84,WNW,290,14.0,23.0,40,-99.99,,,-99.99,,2013-02-01 01:52:00,
2013-01-31 21:02:00,36.0,14.0,29.84,WNW,290,14.0,23.0,40,-99.99,,,-99.99,,2013-02-01 02:02:00,
2013-01-31 21:11:00,36.0,14.0,29.85,West,280,17.0,24.0,40,-99.99,,,-99.99,,2013-02-01 02:11:00,
2013-01-31 21:21:00,36.0,12.0,29.85,West,260,16.0,31.0,37,-99.99,,,-99.99,,2013-02-01 02:21:00,
2013-01-31 21:32:00,34.0,10.0,29.86,WNW,290,14.0,22.0,37,-99.99,,,-99.99,,2013-02-01 02:32:00,
2013-01-31 21:42:00,34.0,12.0,29.86,West,280,15.0,22.0,40,-99.99,,,-99.99,,2013-02-01 02:42:00,
2013-01-31 21:52:00,34.0,14.0,29.87,West,280,14.0,21.0,43,-99.99,,,-99.99,,2013-02-01 02:52:00,
2013-01-31 22:02:00,34.0,14.0,29.87,West,280,14.0,21.0,43,-99.99,,,-99.99,,2013-02-01 03:02:00,
2013-01-31 22:12:00,32.0,16.0,29.88,WNW,290,16.0,30.0,50,-99.99,,,-99.99,,2013-02-01 03:12:00,
2013-01-31 22:21:00,32.0,10.0,29.89,WNW,290,12.0,32.0,40,-99.99,,,-99.99,,2013-02-01 03:21:00,
2013-01-31 22:33:00,32.0,9.0,29.89,WNW,290,14.0,31.0,36,-99.99,,,-99.99,,2013-02-01 03:33:00,
2013-01-31 22:42:00,32.0,9.0,29.89,WNW,290,8.0,25.0,36,-99.99,,,-99.99,,2013-02-01 03:42:00,
2013-01-31 22:51:00,32.0,7.0,29.90,NW,310,15.0,24.0,34,-99.99,,,-99.99,,2013-02-01 03:51:00,
2013-01-31 23:02:00,32.0,7.0,29.90,NW,310,15.0,24.0,34,-99.99,,,-99.99,,2013-02-01 04:02:00,
2013-01-31 23:11:00,32.0,9.0,29.91,WNW,300,8.0,22.0,36,-99.99,,,-99.99,,2013-02-01 04:11:00,
2013-01-31 23:21:00,32.0,9.0,29.91,WNW,300,12.0,20.0,36,-99.99,,,-99.99,,2013-02-01 04:21:00,
2013-01-31 23:32:00,30.0,9.0,29.91,WNW,300,13.0,20.0,39,-99.99,,,-99.99,,2013-02-01 04:32:00,
2013-01-31 23:41:00,30.0,9.0,29.92,West,280,10.0,-999.0,39,-99.99,,,-99.99,,2013-02-01 04:41:00,
2013-01-31 23:51:00,30.0,9.0,29.92,NW,310,12.0,-999.0,39,-99.99,,,-99.99,,2013-02-01 04:51:00,